deformed-offering
Saratoga-Weather Station Historical Data
 
Daily Summary for April 18, 2019 Units:  English    Metric   Both
Daily Weekly Monthly Yearly Custom
  Current: High: Low: Average:
Temperature: 72.8 °F 81.1 °F 48.8 °F 64 °F
Dew Point: 57.6 °F 57.6 °F 45.4 °F 50.4 °F
Humidity: 59% 92% 36% 66%
Wind Speed: 0.0mph 5.7mph 0.0mph 0.7mph
Wind Gust: 0.0mph 11.5mph - -
WindCalm - - SSE
Pressure: 30.01 in 30.18 in 30.00 in -
Precipitation: 0.00 in      
Historical Graphs
 
 
Tabular Data for April 18, 2019
Time Temperature Dew Point Pressure Wind Wind Speed Wind Gust Humidity Rainfall Rate (Hourly) solar
00:04 54.8 °F 48.7 °F 30.18 in Calm     80% 0.00 in 0.00 W/m2
00:09 54.7 °F 48.6 °F 30.18 in Calm     80% 0.00 in 0.00 W/m2
00:14 54.5 °F 48.8 °F 30.18 in Calm     81% 0.00 in 0.00 W/m2
00:19 54.4 °F 48.7 °F 30.18 in Calm     81% 0.00 in 0.00 W/m2
00:24 54.2 °F 48.5 °F 30.18 in Calm     81% 0.00 in 0.00 W/m2
00:29 54.2 °F 48.8 °F 30.18 in Calm     82% 0.00 in 0.00 W/m2
00:34 54.1 °F 48.7 °F 30.18 in Calm     82% 0.00 in 0.00 W/m2
00:39 53.9 °F 48.5 °F 30.18 in Calm     82% 0.00 in 0.00 W/m2
00:44 53.8 °F 48.4 °F 30.18 in Calm     82% 0.00 in 0.00 W/m2
00:49 53.6 °F 48.2 °F 30.17 in Calm     82% 0.00 in 0.00 W/m2
00:54 53.5 °F 48.5 °F 30.17 in Calm     83% 0.00 in 0.00 W/m2
00:59 53.3 °F 48.3 °F 30.17 in Calm     83% 0.00 in 0.00 W/m2
01:04 53.3 °F 48.3 °F 30.17 in Calm     83% 0.00 in 0.00 W/m2
01:09 53.2 °F 48.2 °F 30.16 in Calm     83% 0.00 in 0.00 W/m2
01:14 53.2 °F 48.2 °F 30.16 in Calm     83% 0.00 in 0.00 W/m2
01:19 53.1 °F 48.1 °F 30.16 in Calm     83% 0.00 in 0.00 W/m2
01:24 52.9 °F 48.2 °F 30.16 in Calm     84% 0.00 in 0.00 W/m2
01:29 52.8 °F 48.1 °F 30.16 in Calm     84% 0.00 in 0.00 W/m2
01:34 52.8 °F 48.1 °F 30.16 in Calm     84% 0.00 in 0.00 W/m2
01:39 52.6 °F 47.9 °F 30.16 in Calm     84% 0.00 in 0.00 W/m2
01:44 52.5 °F 47.8 °F 30.16 in Calm     84% 0.00 in 0.00 W/m2
01:49 52.3 °F 47.6 °F 30.16 in Calm     84% 0.00 in 0.00 W/m2
01:54 52.3 °F 47.9 °F 30.16 in Calm     85% 0.00 in 0.00 W/m2
01:59 52.2 °F 47.8 °F 30.16 in Calm     85% 0.00 in 0.00 W/m2
02:04 52.0 °F 47.6 °F 30.15 in Calm     85% 0.00 in 0.00 W/m2
02:09 52.0 °F 47.6 °F 30.15 in Calm     85% 0.00 in 0.00 W/m2
02:14 51.9 °F 47.5 °F 30.15 in Calm     85% 0.00 in 0.00 W/m2
02:19 51.7 °F 47.3 °F 30.15 in Calm     85% 0.00 in 0.00 W/m2
02:24 51.7 °F 47.3 °F 30.15 in Calm     85% 0.00 in 0.00 W/m2
02:29 51.7 °F 47.3 °F 30.15 in Calm     85% 0.00 in 0.00 W/m2
02:34 51.6 °F 47.2 °F 30.15 in Calm     85% 0.00 in 0.00 W/m2
02:39 51.4 °F 47.0 °F 30.15 in Calm     85% 0.00 in 0.00 W/m2
02:44 51.3 °F 46.9 °F 30.15 in Calm     85% 0.00 in 0.00 W/m2
02:49 51.3 °F 46.9 °F 30.15 in Calm     85% 0.00 in 0.00 W/m2
02:54 51.1 °F 46.7 °F 30.14 in Calm     85% 0.00 in 0.00 W/m2
02:59 51.1 °F 47.1 °F 30.14 in Calm     86% 0.00 in 0.00 W/m2
03:04 51.0 °F 47.0 °F 30.14 in Calm     86% 0.00 in 0.00 W/m2
03:09 50.8 °F 46.8 °F 30.14 in Calm     86% 0.00 in 0.00 W/m2
03:14 50.8 °F 46.8 °F 30.14 in Calm     86% 0.00 in 0.00 W/m2
03:19 50.7 °F 46.7 °F 30.14 in Calm     86% 0.00 in 0.00 W/m2
03:24 50.7 °F 46.7 °F 30.14 in Calm     86% 0.00 in 0.00 W/m2
03:29 50.7 °F 46.7 °F 30.14 in Calm     86% 0.00 in 0.00 W/m2
03:34 50.5 °F 46.5 °F 30.14 in Calm     86% 0.00 in 0.00 W/m2
03:39 50.5 °F 46.5 °F 30.14 in Calm     86% 0.00 in 0.00 W/m2
03:44 50.5 °F 46.5 °F 30.14 in Calm     86% 0.00 in 0.00 W/m2
03:49 50.4 °F 46.4 °F 30.15 in Calm     86% 0.00 in 0.00 W/m2
03:54 50.4 °F 46.4 °F 30.15 in Calm     86% 0.00 in 0.00 W/m2
03:59 50.2 °F 46.2 °F 30.14 in Calm     86% 0.00 in 0.00 W/m2
04:04 50.2 °F 46.2 °F 30.15 in Calm     86% 0.00 in 0.00 W/m2
04:09 50.2 °F 46.2 °F 30.15 in Calm     86% 0.00 in 0.00 W/m2
04:14 50.1 °F 46.1 °F 30.15 in Calm     86% 0.00 in 0.00 W/m2
04:19 49.9 °F 45.9 °F 30.14 in Calm     86% 0.00 in 0.00 W/m2
04:24 49.9 °F 45.9 °F 30.14 in Calm     86% 0.00 in 0.00 W/m2
04:29 49.9 °F 45.9 °F 30.14 in Calm     86% 0.00 in 0.00 W/m2
04:34 49.8 °F 46.1 °F 30.14 in Calm     87% 0.00 in 0.00 W/m2
04:39 49.8 °F 46.1 °F 30.14 in Calm     87% 0.00 in 0.00 W/m2
04:44 49.8 °F 46.1 °F 30.13 in Calm     87% 0.00 in 0.00 W/m2
04:49 49.6 °F 45.9 °F 30.13 in Calm     87% 0.00 in 0.00 W/m2
04:54 49.6 °F 45.9 °F 30.13 in Calm     87% 0.00 in 0.00 W/m2
04:59 49.6 °F 45.9 °F 30.13 in Calm     87% 0.00 in 0.00 W/m2
05:04 49.6 °F 45.9 °F 30.13 in Calm     87% 0.00 in 0.00 W/m2
05:09 49.5 °F 45.8 °F 30.13 in Calm     87% 0.00 in 0.00 W/m2
05:14 49.5 °F 45.8 °F 30.13 in Calm     87% 0.00 in 0.00 W/m2
05:19 49.4 °F 45.7 °F 30.13 in Calm     87% 0.00 in 0.00 W/m2
05:24 49.4 °F 45.7 °F 30.13 in Calm     87% 0.00 in 0.00 W/m2
05:29 49.4 °F 45.7 °F 30.13 in Calm     87% 0.00 in 0.00 W/m2
05:34 49.4 °F 45.7 °F 30.13 in Calm     87% 0.00 in 0.00 W/m2
05:39 49.2 °F 45.5 °F 30.13 in Calm     87% 0.00 in 0.00 W/m2
05:44 49.2 °F 45.5 °F 30.13 in Calm     87% 0.00 in 0.00 W/m2
05:49 49.1 °F 45.4 °F 30.13 in Calm     87% 0.00 in 0.00 W/m2
05:54 49.1 °F 45.7 °F 30.13 in Calm     88% 0.00 in 0.00 W/m2
05:59 49.1 °F 45.7 °F 30.13 in Calm     88% 0.00 in 0.00 W/m2
06:04 49.1 °F 45.7 °F 30.13 in Calm     88% 0.00 in 0.00 W/m2
06:09 49.1 °F 45.7 °F 30.13 in Calm     88% 0.00 in 0.00 W/m2
06:14 49.1 °F 45.7 °F 30.13 in Calm     88% 0.00 in 0.00 W/m2
06:19 48.9 °F 45.5 °F 30.13 in Calm     88% 0.00 in 0.00 W/m2
06:24 48.9 °F 45.5 °F 30.13 in Calm     88% 0.00 in 0.00 W/m2
06:29 48.8 °F 45.4 °F 30.13 in Calm     88% 0.00 in 0.00 W/m2
06:34 48.9 °F 45.8 °F 30.13 in Calm     89% 0.00 in 5.00 W/m2
06:39 48.9 °F 45.8 °F 30.13 in Calm     89% 0.00 in 7.00 W/m2
06:44 48.8 °F 45.7 °F 30.13 in Calm     89% 0.00 in 12.00 W/m2
06:49 48.8 °F 45.7 °F 30.13 in Calm     89% 0.00 in 12.00 W/m2
06:54 48.9 °F 45.8 °F 30.13 in Calm     89% 0.00 in 14.00 W/m2
06:59 48.9 °F 46.1 °F 30.14 in Calm     90% 0.00 in 25.00 W/m2
07:04 48.9 °F 46.1 °F 30.14 in Calm     90% 0.00 in 26.00 W/m2
07:09 49.1 °F 46.3 °F 30.14 in Calm     90% 0.00 in 93.00 W/m2
07:14 49.1 °F 46.3 °F 30.14 in Calm     90% 0.00 in 109.00 W/m2
07:19 49.2 °F 46.4 °F 30.14 in Calm     90% 0.00 in 120.00 W/m2
07:24 49.2 °F 46.4 °F 30.14 in Calm     90% 0.00 in 134.00 W/m2
07:29 49.2 °F 46.4 °F 30.14 in Calm     90% 0.00 in 146.00 W/m2
07:34 49.2 °F 46.4 °F 30.14 in Calm     90% 0.00 in 160.00 W/m2
07:39 49.2 °F 46.4 °F 30.14 in Calm     90% 0.00 in 174.00 W/m2
07:44 49.4 °F 46.6 °F 30.14 in Calm     90% 0.00 in 190.00 W/m2
07:49 49.6 °F 47.1 °F 30.14 in Calm     91% 0.00 in 209.00 W/m2
07:54 49.9 °F 47.4 °F 30.14 in Calm     91% 0.00 in 232.00 W/m2
07:59 50.4 °F 48.2 °F 30.14 in Calm     92% 0.00 in 252.00 W/m2
08:04 50.7 °F 48.5 °F 30.14 in Calm     92% 0.00 in 269.00 W/m2
08:09 51.0 °F 48.8 °F 30.14 in Calm     92% 0.00 in 287.00 W/m2
08:14 51.3 °F 49.1 °F 30.14 in Calm     92% 0.00 in 306.00 W/m2
08:19 51.6 °F 49.4 °F 30.14 in Calm     92% 0.00 in 320.00 W/m2
08:24 51.7 °F 49.5 °F 30.14 in Calm     92% 0.00 in 338.00 W/m2
08:29 52.0 °F 49.7 °F 30.14 in Calm     92% 0.00 in 352.00 W/m2
08:34 52.3 °F 49.8 °F 30.13 in Calm   1.2 mph 91% 0.00 in 368.00 W/m2
08:39 52.6 °F 50.0 °F 30.13 in Calm     91% 0.00 in 384.00 W/m2
08:44 52.9 °F 50.3 °F 30.13 in Calm     91% 0.00 in 399.00 W/m2
08:49 53.2 °F 50.6 °F 30.13 in Calm     91% 0.00 in 413.00 W/m2
08:54 53.5 °F 50.6 °F 30.13 in Calm     90% 0.00 in 429.00 W/m2
08:59 53.9 °F 51.0 °F 30.13 in Calm     90% 0.00 in 445.00 W/m2
09:04 54.2 °F 51.0 °F 30.13 in Calm     89% 0.00 in 459.00 W/m2
09:09 54.5 °F 51.0 °F 30.13 in Calm     88% 0.00 in 475.00 W/m2
09:14 55.0 °F 51.2 °F 30.13 in Calm     87% 0.00 in 489.00 W/m2
09:19 55.4 °F 51.3 °F 30.13 in Calm     86% 0.00 in 505.00 W/m2
09:24 55.7 °F 51.3 °F 30.13 in Calm     85% 0.00 in 517.00 W/m2
09:29 56.2 °F 51.4 °F 30.13 in Calm     84% 0.00 in 535.00 W/m2
09:34 56.6 °F 51.2 °F 30.13 in Calm     82% 0.00 in 537.00 W/m2
09:39 57.2 °F 51.1 °F 30.13 in Calm     80% 0.00 in 554.00 W/m2
09:44 57.8 °F 51.0 °F 30.12 in Calm     78% 0.00 in 574.00 W/m2
09:49 58.6 °F 50.7 °F 30.12 in Calm   1.2 mph 75% 0.00 in 586.00 W/m2
09:54 59.3 °F 50.3 °F 30.12 in North 1.1 mph 3.0 mph 72% 0.00 in 600.00 W/m2
09:59 60.1 °F 50.7 °F 30.13 in Calm     71% 0.00 in 616.00 W/m2
10:04 60.5 °F 50.7 °F 30.13 in ENE 0.8 mph 3.5 mph 70% 0.00 in 632.00 W/m2
10:09 61.0 °F 50.4 °F 30.13 in Calm   2.3 mph 68% 0.00 in 642.00 W/m2
10:14 61.6 °F 50.1 °F 30.13 in North 0.7 mph 3.5 mph 66% 0.00 in 655.00 W/m2
10:19 62.3 °F 50.4 °F 30.13 in NE 0.7 mph 3.5 mph 65% 0.00 in 665.00 W/m2
10:24 62.7 °F 50.8 °F 30.12 in Calm     65% 0.00 in 679.00 W/m2
10:29 63.4 °F 50.1 °F 30.12 in NE 0.7 mph 5.0 mph 62% 0.00 in 688.00 W/m2
10:34 63.9 °F 51.1 °F 30.12 in Calm   1.2 mph 63% 0.00 in 702.00 W/m2
10:39 64.3 °F 50.6 °F 30.13 in NNE 1.5 mph 4.6 mph 61% 0.00 in 716.00 W/m2
10:44 64.8 °F 50.6 °F 30.12 in NE 0.5 mph 3.5 mph 60% 0.00 in 728.00 W/m2
10:49 65.3 °F 50.6 °F 30.12 in NNE 1.6 mph 3.5 mph 59% 0.00 in 727.00 W/m2
10:54 65.8 °F 50.6 °F 30.12 in NNE 2.0 mph 3.5 mph 58% 0.00 in 706.00 W/m2
10:59 66.3 °F 50.6 °F 30.12 in NW 0.5 mph 1.2 mph 57% 0.00 in 723.00 W/m2
11:04 66.8 °F 50.6 °F 30.12 in Calm     56% 0.00 in 764.00 W/m2
11:09 67.1 °F 50.9 °F 30.12 in Calm   1.2 mph 56% 0.00 in 772.00 W/m2
11:14 67.6 °F 50.4 °F 30.12 in NNE 1.4 mph 3.5 mph 54% 0.00 in 785.00 W/m2
11:19 68.3 °F 51.0 °F 30.12 in ESE 0.8 mph 2.3 mph 54% 0.00 in 792.00 W/m2
11:24 68.6 °F 52.8 °F 30.11 in Calm   1.2 mph 57% 0.00 in 799.00 W/m2
11:29 68.9 °F 52.6 °F 30.11 in NE 1.8 mph 5.0 mph 56% 0.00 in 808.00 W/m2
11:34 69.3 °F 51.4 °F 30.11 in NNE 0.6 mph 2.3 mph 53% 0.00 in 809.00 W/m2
11:39 69.8 °F 51.4 °F 30.12 in NW 0.5 mph 3.5 mph 52% 0.00 in 808.00 W/m2
11:44 70.1 °F 51.7 °F 30.12 in NE 2.2 mph 4.6 mph 52% 0.00 in 823.00 W/m2
11:49 70.6 °F 51.1 °F 30.12 in ENE 1.8 mph 4.6 mph 50% 0.00 in 806.00 W/m2
11:54 70.9 °F 52.9 °F 30.11 in Calm   1.2 mph 53% 0.00 in 809.00 W/m2
11:59 71.1 °F 52.0 °F 30.11 in Calm     51% 0.00 in 799.00 W/m2
12:04 71.5 °F 52.9 °F 30.11 in East 0.3 mph 2.3 mph 52% 0.00 in 839.00 W/m2
12:09 71.8 °F 52.2 °F 30.11 in East 2.2 mph 3.5 mph 50% 0.00 in 839.00 W/m2
12:14 72.0 °F 51.8 °F 30.11 in ESE 2.1 mph 4.6 mph 49% 0.00 in 848.00 W/m2
12:19 72.3 °F 51.5 °F 30.10 in NE 4.8 mph 5.0 mph 48% 0.00 in 848.00 W/m2
12:24 72.8 °F 52.0 °F 30.10 in NE 2.4 mph 5.8 mph 48% 0.00 in 848.00 W/m2
12:29 73.2 °F 51.8 °F 30.10 in NNE 0.2 mph 2.3 mph 47% 0.00 in 855.00 W/m2
12:34 73.3 °F 50.7 °F 30.10 in NNE 0.7 mph 1.2 mph 45% 0.00 in 862.00 W/m2
12:39 73.7 °F 52.2 °F 30.09 in ENE 1.4 mph 5.0 mph 47% 0.00 in 869.00 W/m2
12:44 74.0 °F 51.9 °F 30.09 in East 1.8 mph 3.5 mph 46% 0.00 in 871.00 W/m2
12:49 74.4 °F 52.9 °F 30.09 in ESE 0.3 mph 2.3 mph 47% 0.00 in 873.00 W/m2
12:54 74.6 °F 51.9 °F 30.08 in ESE 1.5 mph 3.0 mph 45% 0.00 in 874.00 W/m2
12:59 75.1 °F 52.9 °F 30.08 in NNE 0.7 mph 2.0 mph 46% 0.00 in 876.00 W/m2
13:04 75.3 °F 51.9 °F 30.08 in SE 4.0 mph 6.9 mph 44% 0.00 in 873.00 W/m2
13:09 75.6 °F 54.5 °F 30.08 in Calm   2.3 mph 48% 0.00 in 866.00 W/m2
13:14 75.8 °F 52.3 °F 30.07 in NNW 3.3 mph 4.6 mph 44% 0.00 in 855.00 W/m2
13:19 76.3 °F 52.2 °F 30.07 in NNW 1.6 mph 3.5 mph 43% 0.00 in 871.00 W/m2
13:24 76.8 °F 51.3 °F 30.07 in NE 3.2 mph 10.4 mph 41% 0.00 in 871.00 W/m2
13:29 77.2 °F 52.3 °F 30.07 in NE 0.8 mph 3.5 mph 42% 0.00 in 869.00 W/m2
13:34 77.4 °F 52.5 °F 30.07 in Calm   3.5 mph 42% 0.00 in 869.00 W/m2
13:39 77.6 °F 52.0 °F 30.07 in WNW 1.0 mph 6.9 mph 41% 0.00 in 874.00 W/m2
13:44 77.9 °F 52.3 °F 30.07 in North 3.6 mph 9.2 mph 41% 0.00 in 880.00 W/m2
13:49 78.5 °F 51.5 °F 30.07 in North 0.9 mph 3.5 mph 39% 0.00 in 866.00 W/m2
13:54 78.6 °F 52.3 °F 30.07 in North 0.1 mph 5.8 mph 40% 0.00 in 790.00 W/m2
13:59 78.8 °F 52.4 °F 30.07 in WNW 4.0 mph 5.8 mph 40% 0.00 in 846.00 W/m2
14:04 78.8 °F 53.1 °F 30.07 in NNW 3.2 mph 4.6 mph 41% 0.00 in 820.00 W/m2
14:09 79.0 °F 51.9 °F 30.07 in NNW 4.4 mph 6.0 mph 39% 0.00 in 866.00 W/m2
14:14 79.4 °F 53.0 °F 30.07 in NNE 2.1 mph 4.6 mph 40% 0.00 in 801.00 W/m2
14:19 79.4 °F 52.3 °F 30.06 in NW 1.7 mph 4.6 mph 39% 0.00 in 869.00 W/m2
14:24 79.6 °F 53.1 °F 30.06 in NNE 1.3 mph 3.5 mph 40% 0.00 in 850.00 W/m2
14:29 79.9 °F 52.7 °F 30.06 in NNW 1.6 mph 3.5 mph 39% 0.00 in 841.00 W/m2
14:34 79.9 °F 52.0 °F 30.06 in North 4.0 mph 6.9 mph 38% 0.00 in 841.00 W/m2
14:39 80.1 °F 51.5 °F 30.06 in North 4.4 mph 5.8 mph 37% 0.00 in 772.00 W/m2
14:44 80.3 °F 52.4 °F 30.06 in North 2.4 mph 3.5 mph 38% 0.00 in 794.00 W/m2
14:49 80.3 °F 51.7 °F 30.05 in NNE 5.7 mph 11.5 mph 37% 0.00 in 792.00 W/m2
14:54 80.5 °F 51.1 °F 30.05 in NW 0.4 mph 3.5 mph 36% 0.00 in 725.00 W/m2
14:59 80.7 °F 52.0 °F 30.05 in NW 2.6 mph 4.6 mph 37% 0.00 in 774.00 W/m2
15:04 80.7 °F 52.0 °F 30.05 in NNE 2.2 mph 5.8 mph 37% 0.00 in 686.00 W/m2
15:09 80.9 °F 52.2 °F 30.05 in North 2.6 mph 6.9 mph 37% 0.00 in 709.00 W/m2
15:14 80.9 °F 52.2 °F 30.05 in NNW 3.5 mph 6.9 mph 37% 0.00 in 720.00 W/m2
15:19 81.1 °F 53.1 °F 30.05 in NW 2.9 mph 6.0 mph 38% 0.00 in 732.00 W/m2
15:24 81.1 °F 53.1 °F 30.05 in North 3.0 mph 7.0 mph 38% 0.00 in 721.00 W/m2
15:29 81.1 °F 52.4 °F 30.05 in ENE 1.2 mph 2.3 mph 37% 0.00 in 711.00 W/m2
15:34 80.9 °F 52.2 °F 30.04 in NE 4.5 mph 5.8 mph 37% 0.00 in 700.00 W/m2
15:39 80.9 °F 52.2 °F 30.04 in North 4.7 mph 6.9 mph 37% 0.00 in 691.00 W/m2
15:44 80.9 °F 52.9 °F 30.04 in NNW 0.1 mph 4.0 mph 38% 0.00 in 676.00 W/m2
15:49 80.9 °F 52.9 °F 30.04 in North 0.4 mph 2.3 mph 38% 0.00 in 600.00 W/m2
15:54 80.9 °F 53.6 °F 30.03 in North 2.6 mph 6.9 mph 39% 0.00 in 658.00 W/m2
15:59 80.9 °F 52.9 °F 30.03 in North 1.8 mph 8.1 mph 38% 0.00 in 656.00 W/m2
16:04 80.9 °F 53.6 °F 30.03 in NW 4.6 mph 5.8 mph 39% 0.00 in 591.00 W/m2
16:09 80.9 °F 52.9 °F 30.03 in NNE 1.7 mph 8.1 mph 38% 0.00 in 619.00 W/m2
16:14 81.1 °F 53.8 °F 30.03 in North 1.8 mph 3.5 mph 39% 0.00 in 609.00 W/m2
16:19 81.1 °F 53.8 °F 30.03 in NNW 1.5 mph 3.0 mph 39% 0.00 in 604.00 W/m2
16:24 81.1 °F 53.1 °F 30.03 in North 1.8 mph 6.9 mph 38% 0.00 in 575.00 W/m2
16:29 81.1 °F 53.8 °F 30.02 in North 1.7 mph 5.0 mph 39% 0.00 in 528.00 W/m2
16:34 81.1 °F 53.8 °F 30.02 in Calm   1.2 mph 39% 0.00 in 547.00 W/m2
16:39 81.1 °F 54.5 °F 30.02 in West 0.3 mph 3.5 mph 40% 0.00 in 526.00 W/m2
16:44 81.1 °F 55.2 °F 30.02 in Calm   2.3 mph 41% 0.00 in 498.00 W/m2
16:49 80.9 °F 55.0 °F 30.02 in WNW 1.2 mph 2.0 mph 41% 0.00 in 401.00 W/m2
16:54 80.9 °F 53.6 °F 30.02 in NNW 1.0 mph 1.2 mph 39% 0.00 in 301.00 W/m2
16:59 80.7 °F 54.1 °F 30.01 in West 3.2 mph 5.0 mph 40% 0.00 in 202.00 W/m2
17:04 80.7 °F 54.8 °F 30.01 in Calm     41% 0.00 in 227.00 W/m2
17:09 80.5 °F 54.6 °F 30.01 in NW 1.0 mph 1.2 mph 41% 0.00 in 185.00 W/m2
17:14 80.3 °F 53.1 °F 30.01 in Calm     39% 0.00 in 262.00 W/m2
17:19 80.3 °F 54.5 °F 30.01 in Calm   3.5 mph 41% 0.00 in 262.00 W/m2
17:24 80.3 °F 55.8 °F 30.01 in Calm     43% 0.00 in 364.00 W/m2
17:29 80.1 °F 54.9 °F 30.00 in Calm   2.0 mph 42% 0.00 in 340.00 W/m2
17:34 79.9 °F 54.1 °F 30.00 in WSW 2.4 mph 3.5 mph 41% 0.00 in 297.00 W/m2
17:39 79.8 °F 54.7 °F 30.00 in Calm     42% 0.00 in 274.00 W/m2
17:44 79.8 °F 53.3 °F 30.00 in Calm   2.3 mph 40% 0.00 in 271.00 W/m2
17:49 79.8 °F 53.3 °F 30.00 in Calm   2.3 mph 40% 0.00 in 253.00 W/m2
17:54 79.8 °F 54.7 °F 30.00 in North 0.3 mph   42% 0.00 in 216.00 W/m2
17:59 79.6 °F 53.8 °F 30.00 in Calm     41% 0.00 in 202.00 W/m2
18:04 79.6 °F 54.5 °F 30.00 in Calm     42% 0.00 in 202.00 W/m2
18:09 79.6 °F 53.8 °F 30.00 in Calm   1.2 mph 41% 0.00 in 178.00 W/m2
18:14 79.6 °F 53.8 °F 30.00 in NNW 0.2 mph 1.2 mph 41% 0.00 in 155.00 W/m2
18:19 79.6 °F 54.5 °F 30.00 in NW 0.2 mph   42% 0.00 in 150.00 W/m2
18:24 79.4 °F 55.0 °F 30.00 in NW 2.9 mph 5.0 mph 43% 0.00 in 104.00 W/m2
18:29 79.4 °F 55.6 °F 30.00 in NNE 0.5 mph 6.9 mph 44% 0.00 in 127.00 W/m2
18:34 79.4 °F 55.6 °F 30.00 in North 2.6 mph 5.8 mph 44% 0.00 in 132.00 W/m2
18:39 79.2 °F 56.0 °F 30.00 in North 0.9 mph 4.6 mph 45% 0.00 in 107.00 W/m2
18:44 79.0 °F 55.8 °F 30.00 in North 0.5 mph 2.3 mph 45% 0.00 in 100.00 W/m2
18:49 79.0 °F 55.8 °F 30.00 in NNE 2.7 mph 3.5 mph 45% 0.00 in 99.00 W/m2
18:54 78.8 °F 55.7 °F 30.00 in North 1.2 mph 2.0 mph 45% 0.00 in 104.00 W/m2
18:59 78.6 °F 54.9 °F 30.00 in NNE 0.8 mph 3.5 mph 44% 0.00 in 90.00 W/m2
19:04 78.5 °F 54.8 °F 30.00 in Calm   1.2 mph 44% 0.00 in 70.00 W/m2
19:09 78.1 °F 55.6 °F 30.00 in Calm     46% 0.00 in 46.00 W/m2
19:14 77.9 °F 55.5 °F 30.00 in Calm   1.2 mph 46% 0.00 in 35.00 W/m2
19:19 77.7 °F 55.9 °F 30.00 in Calm     47% 0.00 in 28.00 W/m2
19:24 77.4 °F 56.2 °F 30.00 in Calm     48% 0.00 in 28.00 W/m2
19:29 77.0 °F 56.4 °F 30.00 in NNW 1.1 mph 3.5 mph 49% 0.00 in 19.00 W/m2
19:34 76.7 °F 55.5 °F 30.00 in Calm   1.2 mph 48% 0.00 in 14.00 W/m2
19:39 76.5 °F 56.5 °F 30.00 in Calm   1.2 mph 50% 0.00 in 11.00 W/m2
19:44 76.1 °F 56.7 °F 30.00 in Calm     51% 0.00 in 5.00 W/m2
19:49 75.8 °F 55.8 °F 30.00 in Calm     50% 0.00 in 0.00 W/m2
19:54 75.4 °F 56.5 °F 30.00 in Calm     52% 0.00 in 0.00 W/m2
19:59 74.9 °F 56.6 °F 30.01 in Calm     53% 0.00 in 0.00 W/m2
20:04 74.6 °F 57.4 °F 30.01 in Calm     55% 0.00 in 0.00 W/m2
20:09 74.0 °F 56.8 °F 30.01 in Calm     55% 0.00 in 0.00 W/m2
20:14 73.7 °F 57.0 °F 30.01 in Calm     56% 0.00 in 0.00 W/m2
20:19 73.3 °F 57.6 °F 30.01 in Calm     58% 0.00 in 0.00 W/m2
20:24 72.8 °F 57.6 °F 30.01 in Calm     59% 0.00 in 0.00 W/m2
Saratoga, California, USA
Compliments of Weather Underground - 2 mb

WU-history PHP script courtesy of Juneau County Weather.

deformed-offering